createdAt,value
2018-12-30T00:01:28.575Z,101764.77
2018-12-30T00:03:56.779Z,101761.16
2018-12-30T00:06:25.341Z,101758.43
2018-12-30T00:08:53.919Z,101758.92
2018-12-30T00:11:22.187Z,101756.19
2018-12-30T00:13:50.409Z,101745.67
2018-12-30T00:16:18.611Z,101749.77
2018-12-30T00:18:47.199Z,101736.62
2018-12-30T00:21:15.421Z,101750.73
2018-12-30T00:23:43.617Z,101746.42
2018-12-30T00:26:11.849Z,101734.02
2018-12-30T00:28:40.050Z,101736.75
2018-12-30T00:31:08.273Z,101737.63
2018-12-30T00:33:36.489Z,101743.08
2018-12-30T00:36:04.681Z,101747.17
2018-12-30T00:38:32.916Z,101747.17
2018-12-30T00:41:01.109Z,101741.45
2018-12-30T00:43:29.337Z,101732.78
2018-12-30T00:45:57.568Z,101726.33
2018-12-30T00:48:25.787Z,101734.90
2018-12-30T00:50:53.999Z,101730.06
2018-12-30T00:53:22.220Z,101733.80
2018-12-30T00:55:50.518Z,101743.34
2018-12-30T00:58:18.746Z,101735.16
2018-12-30T01:00:46.975Z,101737.88
2018-12-30T01:03:15.193Z,101745.67
2018-12-30T01:05:43.402Z,101755.22
2018-12-30T01:08:11.637Z,101761.67
2018-12-30T01:10:40.236Z,101763.78
2018-12-30T01:13:08.437Z,101757.94
2018-12-30T01:15:37.025Z,101764.40
2018-12-30T01:18:05.237Z,101767.12
2018-12-30T01:20:33.463Z,101778.03
2018-12-30T01:23:01.671Z,101780.27
2018-12-30T01:25:29.888Z,101773.58
2018-12-30T01:27:58.084Z,101770.47
2018-12-30T01:30:26.592Z,101772.70
2018-12-30T01:32:54.788Z,101768.62
2018-12-30T01:35:22.994Z,101774.20
2018-12-30T01:37:51.226Z,101768.74
2018-12-30T01:40:19.466Z,101764.66
2018-12-30T01:42:47.687Z,101774.55
2018-12-30T01:45:15.915Z,101766.02
2018-12-30T01:47:44.128Z,101765.02
2018-12-30T01:50:12.320Z,101772.61
2018-12-30T01:52:40.533Z,101780.53
2018-12-30T01:55:08.787Z,101787.95
2018-12-30T01:57:37.268Z,101802.08
2018-12-30T02:00:06.332Z,101797.73
2018-12-30T02:02:34.531Z,101799.22
2018-12-30T02:05:02.767Z,101811.00
2018-12-30T02:07:30.962Z,101812.49
2018-12-30T02:09:59.225Z,101814.98
2018-12-30T02:12:27.397Z,101813.37
2018-12-30T02:14:55.606Z,101822.52
2018-12-30T02:17:23.830Z,101824.41
2018-12-30T02:19:52.067Z,101825.89
2018-12-30T02:22:20.253Z,101834.43
2018-12-30T02:24:48.764Z,101847.45
2018-12-30T02:27:16.981Z,101831.22
2018-12-30T02:29:45.185Z,101833.42
2018-12-30T02:32:13.383Z,101820.05
2018-12-30T02:34:41.605Z,101827.25
2018-12-30T02:37:10.074Z,101833.31
2018-12-30T02:39:38.299Z,101837.41
2018-12-30T02:42:06.506Z,101839.12
2018-12-30T02:44:34.713Z,101837.77
2018-12-30T02:47:03.166Z,101827.87
2018-12-30T02:49:31.382Z,101833.80
2018-12-30T02:51:59.609Z,101830.95
2018-12-30T02:54:27.811Z,101830.59
2018-12-30T02:56:56.024Z,101829.72
2018-12-30T02:59:24.249Z,101837.77
2018-12-30T03:01:52.472Z,101831.20
2018-12-30T03:04:20.695Z,101834.41
2018-12-30T03:06:48.894Z,101834.05
2018-12-30T03:09:17.103Z,101825.88
2018-12-30T03:11:45.325Z,101833.05
2018-12-30T03:14:13.535Z,101830.20
2018-12-30T03:16:41.761Z,101833.05
2018-12-30T03:19:09.943Z,101827.47
2018-12-30T03:21:38.148Z,101839.25
2018-12-30T03:24:06.373Z,101845.45
2018-12-30T03:26:34.568Z,101847.45
2018-12-30T03:29:02.803Z,101831.81
2018-12-30T03:31:31.036Z,101835.42
2018-12-30T03:33:59.237Z,101835.55
2018-12-30T03:36:27.463Z,101831.94
2018-12-30T03:38:55.689Z,101842.97
2018-12-30T03:41:23.885Z,101835.91
2018-12-30T03:43:52.106Z,101836.16
2018-12-30T03:46:20.293Z,101835.19
2018-12-30T03:48:48.511Z,101836.91
2018-12-30T03:51:16.707Z,101830.45
2018-12-30T03:53:44.927Z,101833.06
2018-12-30T03:56:13.154Z,101831.22
2018-12-30T03:58:41.359Z,101839.39
2018-12-30T04:01:09.575Z,101843.22
2018-12-30T04:03:37.817Z,101849.78
2018-12-30T04:06:06.043Z,101843.61
2018-12-30T04:08:34.269Z,101848.94
2018-12-30T04:11:02.477Z,101852.02
2018-12-30T04:13:30.680Z,101850.42
2018-12-30T04:15:58.884Z,101852.76
2018-12-30T04:18:27.107Z,101851.64
2018-12-30T04:20:55.339Z,101853.16
2018-12-30T04:23:23.561Z,101857.72
2018-12-30T04:25:51.771Z,101855.48
2018-12-30T04:28:19.993Z,101860.33
2018-12-30T04:30:48.196Z,101858.96
2018-12-30T04:33:16.416Z,101865.91
2018-12-30T04:35:44.604Z,101864.41
2018-12-30T04:38:12.838Z,101871.23
2018-12-30T04:40:41.072Z,101871.48
2018-12-30T04:43:09.280Z,101872.48
2018-12-30T04:45:37.502Z,101868.00
2018-12-30T04:48:05.812Z,101866.64
2018-12-30T04:50:34.006Z,101869.75
2018-12-30T04:53:02.246Z,101872.84
2018-12-30T04:55:30.476Z,101875.08
2018-12-30T04:57:58.702Z,101877.29
2018-12-30T05:00:26.907Z,101876.57
2018-12-30T05:02:55.142Z,101881.63
2018-12-30T05:05:23.369Z,101892.17
2018-12-30T05:07:51.557Z,101892.66
2018-12-30T05:10:19.783Z,101902.19
2018-12-30T05:12:48.024Z,101904.43
2018-12-30T05:15:16.221Z,101902.95
2018-12-30T05:17:44.426Z,101912.25
2018-12-30T05:20:12.638Z,101916.34
2018-12-30T05:22:40.849Z,101919.78
2018-12-30T05:25:09.056Z,101917.19
2018-12-30T05:27:37.264Z,101927.59
2018-12-30T05:30:06.357Z,101930.69
2018-12-30T05:32:34.564Z,101922.15
2018-12-30T05:35:02.874Z,101932.56
2018-12-30T05:37:31.088Z,101938.02
2018-12-30T05:39:59.290Z,101933.53
2018-12-30T05:42:27.512Z,101948.16
2018-12-30T05:44:55.748Z,101938.98
2018-12-30T05:47:23.962Z,101946.08
2018-12-30T05:49:52.179Z,101951.00
2018-12-30T05:52:20.377Z,101953.86
2018-12-30T05:54:48.613Z,101964.40
2018-12-30T05:57:16.813Z,101971.97
2018-12-30T05:59:45.028Z,101977.42
2018-12-30T06:02:13.263Z,101984.59
2018-12-30T06:04:41.475Z,101989.05
2018-12-30T06:07:09.695Z,101987.80
2018-12-30T06:09:37.891Z,101995.98
2018-12-30T06:12:06.123Z,101994.50
2018-12-30T06:14:34.335Z,102000.34
2018-12-30T06:17:02.575Z,102007.77
2018-12-30T06:19:30.772Z,102000.95
2018-12-30T06:21:58.959Z,102005.52
2018-12-30T06:24:27.187Z,102003.31
2018-12-30T06:26:55.406Z,102000.59
2018-12-30T06:29:23.616Z,102007.00
2018-12-30T06:31:51.851Z,102011.86
2018-12-30T06:34:20.091Z,102020.03
2018-12-30T06:36:48.318Z,102021.64
2018-12-30T06:39:16.522Z,102033.30
2018-12-30T06:41:44.714Z,102031.94
2018-12-30T06:44:12.925Z,102045.45
2018-12-30T06:46:41.128Z,102050.50
2018-12-30T06:49:10.628Z,102062.40
2018-12-30T06:51:38.938Z,102067.25
2018-12-30T06:54:07.143Z,102070.58
2018-12-30T06:56:35.372Z,102080.48
2018-12-30T06:59:03.568Z,102090.91
2018-12-30T07:01:31.804Z,102091.39
2018-12-30T07:04:00.026Z,102096.35
2018-12-30T07:06:28.230Z,102097.47
2018-12-30T07:08:56.452Z,102093.27
2018-12-30T07:11:24.672Z,102099.20
2018-12-30T07:13:52.875Z,102089.30
2018-12-30T07:16:21.092Z,102096.59
2018-12-30T07:18:49.290Z,102089.78
2018-12-30T07:21:17.514Z,102089.30
2018-12-30T07:23:45.717Z,102094.74
2018-12-30T07:26:13.924Z,102099.80
2018-12-30T07:28:42.124Z,102103.04
2018-12-30T07:31:10.342Z,102100.80
2018-12-30T07:33:38.554Z,102089.78
2018-12-30T07:36:06.787Z,102090.66
2018-12-30T07:38:34.984Z,102084.92
2018-12-30T07:41:03.204Z,102092.14
2018-12-30T07:43:31.438Z,102078.59
2018-12-30T07:45:59.696Z,102071.78
2018-12-30T07:48:27.906Z,102088.05
2018-12-30T07:50:56.106Z,102091.74
2018-12-30T07:53:24.341Z,102092.34
2018-12-30T07:55:52.544Z,102094.10
2018-12-30T07:58:20.755Z,102097.43
2018-12-30T08:00:48.961Z,102100.91
2018-12-30T08:03:17.153Z,102119.23
2018-12-30T08:05:45.366Z,102133.62
2018-12-30T08:08:13.592Z,102136.72
2018-12-30T08:10:41.869Z,102145.49
2018-12-30T08:13:10.012Z,102149.86
2018-12-30T08:15:38.215Z,102154.44
2018-12-30T08:18:06.438Z,102167.30
2018-12-30T08:20:34.643Z,102174.99
2018-12-30T08:23:02.886Z,102171.78
2018-12-30T08:25:31.089Z,102167.41
2018-12-30T08:27:59.339Z,102180.80
2018-12-30T08:30:27.537Z,102175.11
2018-12-30T08:32:55.740Z,102173.38
2018-12-30T08:35:23.979Z,102172.98
2018-12-30T08:37:52.219Z,102180.56
2018-12-30T08:40:20.434Z,102183.03
2018-12-30T08:42:48.621Z,102182.52
2018-12-30T08:45:16.841Z,102186.72
2018-12-30T08:47:45.055Z,102184.77
2018-12-30T08:50:13.247Z,102181.67
2018-12-30T08:52:41.460Z,102183.63
2018-12-30T08:55:09.691Z,102185.36
2018-12-30T08:57:37.903Z,102187.61
2018-12-30T09:00:06.766Z,102192.30
2018-12-30T09:02:35.013Z,102189.97
2018-12-30T09:05:03.250Z,102193.66
2018-12-30T09:07:31.458Z,102192.69
2018-12-30T09:09:59.649Z,102197.01
2018-12-30T09:12:27.867Z,102211.00
2018-12-30T09:14:56.061Z,102208.64
2018-12-30T09:17:24.285Z,102213.98
2018-12-30T09:19:52.488Z,102217.81
2018-12-30T09:22:20.695Z,102221.30
2018-12-30T09:24:48.895Z,102222.13
2018-12-30T09:27:17.109Z,102223.27
2018-12-30T09:29:45.333Z,102220.54
2018-12-30T09:32:13.538Z,102224.27
2018-12-30T09:34:41.773Z,102234.28
2018-12-30T09:37:09.967Z,102235.16
2018-12-30T09:39:38.184Z,102233.03
2018-12-30T09:42:06.384Z,102239.37
2018-12-30T09:44:34.607Z,102235.76
2018-12-30T09:47:02.814Z,102244.42
2018-12-30T09:49:31.039Z,102239.37
2018-12-30T09:51:59.257Z,102234.14
2018-12-30T09:54:27.467Z,102239.37
2018-12-30T09:56:55.673Z,102243.56
2018-12-30T09:59:23.921Z,102239.48
2018-12-30T10:01:52.125Z,102236.36
2018-12-30T10:04:20.323Z,102237.69
2018-12-30T10:06:48.561Z,102238.91
2018-12-30T10:09:16.803Z,102231.03
2018-12-30T10:11:45.013Z,102241.77
2018-12-30T10:14:13.245Z,102249.26
2018-12-30T10:16:41.479Z,102246.13
2018-12-30T10:19:09.967Z,102238.95
2018-12-30T10:21:38.261Z,102250.08
2018-12-30T10:24:06.501Z,102238.52
2018-12-30T10:26:34.703Z,102225.42
2018-12-30T10:29:02.899Z,102231.23
2018-12-30T10:31:31.126Z,102226.92
2018-12-30T10:33:59.325Z,102233.84
2018-12-30T10:36:27.549Z,102237.27
2018-12-30T10:38:55.768Z,102244.08
2018-12-30T10:41:23.985Z,102236.13
2018-12-30T10:43:52.171Z,102242.46
2018-12-30T10:46:20.403Z,102257.55
2018-12-30T10:48:48.604Z,102255.20
2018-12-30T10:51:16.818Z,102254.23
2018-12-30T10:53:45.010Z,102252.25
2018-12-30T10:56:13.234Z,102257.15
2018-12-30T10:58:41.497Z,102253.83
2018-12-30T11:01:09.673Z,102253.47
2018-12-30T11:03:37.910Z,102254.23
2018-12-30T11:06:06.135Z,102245.67
2018-12-30T11:08:34.361Z,102245.44
2018-12-30T11:11:02.568Z,102243.53
2018-12-30T11:13:30.785Z,102249.38
2018-12-30T11:15:58.994Z,102238.01
2018-12-30T11:18:27.205Z,102237.13
2018-12-30T11:20:55.401Z,102238.97
2018-12-30T11:23:23.605Z,102240.44
2018-12-30T11:25:51.831Z,102247.80
2018-12-30T11:28:20.031Z,102250.09
2018-12-30T11:30:48.268Z,102249.20
2018-12-30T11:33:16.474Z,102250.09
2018-12-30T11:35:44.707Z,102250.30
2018-12-30T11:38:12.922Z,102254.17
2018-12-30T11:40:41.123Z,102259.50
2018-12-30T11:43:09.318Z,102257.55
2018-12-30T11:45:37.550Z,102259.14
2018-12-30T11:48:05.749Z,102253.83
2018-12-30T11:50:33.960Z,102252.47
2018-12-30T11:53:02.154Z,102256.19
2018-12-30T11:55:30.373Z,102248.02
2018-12-30T11:57:58.576Z,102249.49
2018-12-30T12:00:26.834Z,102243.53
2018-12-30T12:02:55.053Z,102238.94
2018-12-30T12:05:23.274Z,102248.47
2018-12-30T12:07:51.488Z,102242.39
2018-12-30T12:10:19.702Z,102235.98
2018-12-30T12:12:49.124Z,102228.73
2018-12-30T12:15:17.730Z,102219.75
2018-12-30T12:17:45.976Z,102207.86
2018-12-30T12:20:14.171Z,102193.24
2018-12-30T12:22:42.381Z,102189.70
2018-12-30T12:25:10.647Z,102186.61
2018-12-30T12:27:38.840Z,102191.66
2018-12-30T12:30:07.588Z,102193.64
2018-12-30T12:32:35.839Z,102198.05
2018-12-30T12:35:04.323Z,102197.53
2018-12-30T12:37:32.538Z,102197.41
2018-12-30T12:40:00.758Z,102203.41
2018-12-30T12:42:29.009Z,102206.13
2018-12-30T12:44:57.243Z,102204.05
2018-12-30T12:47:25.444Z,102192.98
2018-12-30T12:49:53.660Z,102195.37
2018-12-30T12:52:21.867Z,102178.72
2018-12-30T12:54:50.096Z,102177.55
2018-12-30T12:57:18.314Z,102173.05
2018-12-30T12:59:46.559Z,102181.21
2018-12-30T13:02:14.787Z,102179.12
2018-12-30T13:04:42.992Z,102178.89
2018-12-30T13:07:11.207Z,102181.44
2018-12-30T13:09:39.427Z,102182.06
2018-12-30T13:12:07.656Z,102191.38
2018-12-30T13:14:35.891Z,102192.22
2018-12-30T13:17:04.121Z,102198.18
2018-12-30T13:19:32.346Z,102193.92
2018-12-30T13:22:00.557Z,102196.81
2018-12-30T13:24:28.785Z,102196.53
2018-12-30T13:26:57.020Z,102201.50
2018-12-30T13:29:25.227Z,102199.00
2018-12-30T13:31:53.458Z,102192.30
2018-12-30T13:34:21.674Z,102187.62
2018-12-30T13:36:49.860Z,102195.45
2018-12-30T13:39:18.102Z,102192.19
2018-12-30T13:41:46.308Z,102200.84
2018-12-30T13:44:14.554Z,102196.21
2018-12-30T13:46:42.782Z,102203.97
2018-12-30T13:49:10.987Z,102202.91
2018-12-30T13:51:39.196Z,102202.20
2018-12-30T13:54:07.419Z,102192.84
2018-12-30T13:56:35.640Z,102189.47
2018-12-30T13:59:03.880Z,102184.98
2018-12-30T14:01:32.158Z,102194.38
2018-12-30T14:04:00.438Z,102191.79
2018-12-30T14:06:28.642Z,102189.80
2018-12-30T14:08:56.864Z,102206.03
2018-12-30T14:11:25.092Z,102202.91
2018-12-30T14:13:53.321Z,102199.81
2018-12-30T14:16:21.525Z,102206.25
2018-12-30T14:18:49.758Z,102210.23
2018-12-30T14:21:17.952Z,102211.08
2018-12-30T14:23:46.167Z,102214.42
2018-12-30T14:26:14.563Z,102216.16
2018-12-30T14:28:42.793Z,102223.73
2018-12-30T14:31:11.009Z,102230.36
2018-12-30T14:33:39.246Z,102237.06
2018-12-30T14:36:07.459Z,102247.36
2018-12-30T14:38:35.680Z,102249.61
2018-12-30T14:41:03.904Z,102255.53
2018-12-30T14:43:32.290Z,102266.20
2018-12-30T14:46:00.499Z,102264.36
2018-12-30T14:48:28.727Z,102253.80
2018-12-30T14:50:56.945Z,102262.11
2018-12-30T14:53:25.175Z,102263.95
2018-12-30T14:55:53.385Z,102260.50
2018-12-30T14:58:21.609Z,102256.78
2018-12-30T15:00:49.835Z,102252.26
2018-12-30T15:03:18.083Z,102256.02
2018-12-30T15:05:46.279Z,102263.70
2018-12-30T15:08:14.618Z,102276.44
2018-12-30T15:10:42.837Z,102275.58
2018-12-30T15:13:11.053Z,102275.19
2018-12-30T15:15:39.283Z,102263.26
2018-12-30T15:18:07.509Z,102252.14
2018-12-30T15:20:35.755Z,102240.89
2018-12-30T15:23:03.957Z,102243.28
2018-12-30T15:25:32.182Z,102248.61
2018-12-30T15:28:00.412Z,102248.47
2018-12-30T15:30:28.612Z,102253.91
2018-12-30T15:32:56.849Z,102245.97
2018-12-30T15:35:25.037Z,102254.50
2018-12-30T15:37:53.297Z,102256.85
2018-12-30T15:40:21.476Z,102265.28
2018-12-30T15:42:49.719Z,102280.11
2018-12-30T15:45:17.938Z,102294.91
2018-12-30T15:47:46.145Z,102293.91
2018-12-30T15:50:14.373Z,102289.94
2018-12-30T15:52:42.569Z,102290.38
2018-12-30T15:55:10.819Z,102284.67
2018-12-30T15:57:39.011Z,102273.89
2018-12-30T16:00:09.168Z,102279.56
2018-12-30T16:02:37.390Z,102268.27
2018-12-30T16:05:05.759Z,102263.81
2018-12-30T16:07:33.999Z,102268.59
2018-12-30T16:10:02.204Z,102260.72
2018-12-30T16:12:30.438Z,102252.14
2018-12-30T16:14:58.629Z,102258.36
2018-12-30T16:17:26.832Z,102253.73
2018-12-30T16:19:55.250Z,102256.02
2018-12-30T16:22:23.479Z,102252.92
2018-12-30T16:24:51.691Z,102248.79
2018-12-30T16:27:19.907Z,102253.95
2018-12-30T16:29:48.145Z,102250.97
2018-12-30T16:32:16.337Z,102249.05
2018-12-30T16:34:44.560Z,102246.55
2018-12-30T16:37:12.794Z,102228.05
2018-12-30T16:39:41.012Z,102233.71
2018-12-30T16:42:09.263Z,102235.55
2018-12-30T16:44:37.491Z,102248.83
2018-12-30T16:47:05.707Z,102252.03
2018-12-30T16:49:33.957Z,102248.35
2018-12-30T16:52:02.156Z,102244.16
2018-12-30T16:54:30.567Z,102234.78
2018-12-30T16:56:58.784Z,102231.36
2018-12-30T16:59:27.008Z,102235.70
2018-12-30T17:01:55.225Z,102236.43
2018-12-30T17:04:23.472Z,102236.43
2018-12-30T17:06:51.691Z,102243.23
2018-12-30T17:09:19.932Z,102242.47
2018-12-30T17:11:48.144Z,102238.34
2018-12-30T17:14:16.340Z,102238.45
2018-12-30T17:16:44.576Z,102244.09
2018-12-30T17:19:12.806Z,102243.23
2018-12-30T17:21:41.025Z,102239.27
2018-12-30T17:24:09.254Z,102247.25
2018-12-30T17:26:37.464Z,102248.61
2018-12-30T17:29:05.696Z,102246.45
2018-12-30T17:31:33.933Z,102241.66
2018-12-30T17:34:02.178Z,102250.09
2018-12-30T17:36:30.368Z,102251.34
2018-12-30T17:38:58.612Z,102249.39
2018-12-30T17:41:26.830Z,102244.64
2018-12-30T17:43:55.052Z,102244.94
2018-12-30T17:46:23.275Z,102239.16
2018-12-30T17:48:51.486Z,102230.59
2018-12-30T17:51:19.696Z,102231.21
2018-12-30T17:53:47.909Z,102234.05
2018-12-30T17:56:16.112Z,102226.35
2018-12-30T17:58:44.338Z,102222.27
2018-12-30T18:01:12.556Z,102223.04
2018-12-30T18:03:40.782Z,102224.52
2018-12-30T18:06:09.007Z,102231.66
2018-12-30T18:08:37.244Z,102233.97
2018-12-30T18:11:05.462Z,102235.55
2018-12-30T18:13:33.688Z,102233.82
2018-12-30T18:16:01.894Z,102242.36
2018-12-30T18:18:30.122Z,102239.16
2018-12-30T18:20:58.335Z,102239.48
2018-12-30T18:23:26.552Z,102240.45
2018-12-30T18:25:58.554Z,102243.46
2018-12-30T18:28:24.740Z,102244.75
2018-12-30T18:30:52.952Z,102250.59
2018-12-30T18:33:21.192Z,102245.52
2018-12-30T18:35:49.406Z,102248.94
2018-12-30T18:38:17.645Z,102243.57
2018-12-30T18:40:45.874Z,102255.05
2018-12-30T18:43:14.127Z,102251.23
2018-12-30T18:45:42.332Z,102248.69
2018-12-30T18:48:10.549Z,102246.11
2018-12-30T18:50:38.792Z,102246.84
2018-12-30T18:53:07.007Z,102243.89
2018-12-30T18:55:35.236Z,102238.94
2018-12-30T18:58:03.436Z,102230.98
2018-12-30T19:00:31.687Z,102229.29
2018-12-30T19:02:59.882Z,102234.26
2018-12-30T19:05:28.111Z,102231.86
2018-12-30T19:07:56.333Z,102214.54
2018-12-30T19:10:24.536Z,102227.81
2018-12-30T19:12:52.754Z,102221.30
2018-12-30T19:15:21.004Z,102226.57
2018-12-30T19:17:49.218Z,102229.87
2018-12-30T19:20:17.429Z,102235.83
2018-12-30T19:22:45.655Z,102242.12
2018-12-30T19:25:13.875Z,102250.18
2018-12-30T19:27:42.065Z,102243.70
2018-12-30T19:30:10.778Z,102255.25
2018-12-30T19:32:38.999Z,102251.13
2018-12-30T19:35:07.192Z,102250.61
2018-12-30T19:37:35.415Z,102250.72
2018-12-30T19:40:05.456Z,102257.53
2018-12-30T19:42:33.695Z,102259.12
2018-12-30T19:45:01.916Z,102256.07
2018-12-30T19:47:30.159Z,102253.46
2018-12-30T19:49:58.374Z,102248.71
2018-12-30T19:52:26.585Z,102255.20
2018-12-30T19:54:54.828Z,102255.23
2018-12-30T19:57:23.980Z,102255.14
2018-12-30T19:59:52.207Z,102261.29
2018-12-30T20:02:20.426Z,102250.72
2018-12-30T20:04:48.666Z,102254.34
2018-12-30T20:07:16.900Z,102254.28
2018-12-30T20:09:45.130Z,102249.12
2018-12-30T20:12:13.327Z,102263.77
2018-12-30T20:14:43.378Z,102253.51
2018-12-30T20:17:11.508Z,102260.23
2018-12-30T20:19:39.738Z,102258.47
2018-12-30T20:22:08.006Z,102255.16
2018-12-30T20:24:36.215Z,102261.38
2018-12-30T20:27:04.405Z,102242.69
2018-12-30T20:29:32.636Z,102239.08
2018-12-30T20:32:00.832Z,102238.61
2018-12-30T20:34:29.123Z,102231.21
2018-12-30T20:36:57.322Z,102234.89
2018-12-30T20:39:25.528Z,102232.57
2018-12-30T20:41:53.759Z,102232.94
2018-12-30T20:44:21.965Z,102231.95
2018-12-30T20:46:50.214Z,102233.30
2018-12-30T20:49:18.415Z,102233.59
2018-12-30T20:51:46.664Z,102234.45
2018-12-30T20:54:14.866Z,102236.58
2018-12-30T20:56:43.099Z,102229.00
2018-12-30T20:59:11.318Z,102223.55
2018-12-30T21:01:39.555Z,102224.80
2018-12-30T21:04:07.752Z,102230.14
2018-12-30T21:06:35.971Z,102223.33
2018-12-30T21:09:05.318Z,102218.40
2018-12-30T21:11:33.546Z,102216.16
2018-12-30T21:14:01.752Z,102216.92
2018-12-30T21:16:29.970Z,102221.75
2018-12-30T21:18:58.180Z,102218.17
2018-12-30T21:21:26.405Z,102217.77
2018-12-30T21:23:54.629Z,102217.66
2018-12-30T21:26:22.834Z,102218.43
2018-12-30T21:28:51.077Z,102215.23
2018-12-30T21:31:19.291Z,102213.50
2018-12-30T21:33:47.554Z,102206.77
2018-12-30T21:36:15.798Z,102204.45
2018-12-30T21:38:43.998Z,102198.52
2018-12-30T21:41:12.217Z,102196.64
2018-12-30T21:43:40.434Z,102182.26
2018-12-30T21:46:08.747Z,102184.98
2018-12-30T21:48:36.982Z,102187.88
2018-12-30T21:51:05.190Z,102194.09
2018-12-30T21:53:33.420Z,102189.36
2018-12-30T21:56:01.683Z,102196.16
2018-12-30T21:58:29.857Z,102187.52
2018-12-30T22:00:58.103Z,102190.23
2018-12-30T22:03:26.313Z,102196.93
2018-12-30T22:05:54.540Z,102194.69
2018-12-30T22:08:22.843Z,102194.21
2018-12-30T22:10:51.038Z,102188.36
2018-12-30T22:13:19.253Z,102183.80
2018-12-30T22:15:47.491Z,102179.71
2018-12-30T22:18:15.692Z,102179.71
2018-12-30T22:20:43.939Z,102181.44
2018-12-30T22:23:12.137Z,102185.92
2018-12-30T22:25:42.148Z,102186.63
2018-12-30T22:28:10.460Z,102185.16
2018-12-30T22:30:38.676Z,102177.36
2018-12-30T22:33:06.945Z,102177.36
2018-12-30T22:35:35.153Z,102180.95
2018-12-30T22:38:03.358Z,102183.20
2018-12-30T22:40:31.559Z,102184.67
2018-12-30T22:42:59.795Z,102183.80
2018-12-30T22:45:28.070Z,102195.45
2018-12-30T22:47:56.309Z,102188.53
2018-12-30T22:50:24.521Z,102179.23
2018-12-30T22:52:52.766Z,102185.30
2018-12-30T22:55:20.975Z,102173.56
2018-12-30T22:57:49.162Z,102172.20
2018-12-30T23:00:34.937Z,102171.80
2018-12-30T23:03:03.172Z,102166.34
2018-12-30T23:05:31.380Z,102167.59
2018-12-30T23:07:59.625Z,102164.88
2018-12-30T23:10:27.847Z,102161.78
2018-12-30T23:12:56.057Z,102156.70
2018-12-30T23:15:24.290Z,102142.72
2018-12-30T23:17:52.495Z,102150.52
2018-12-30T23:20:20.714Z,102159.05
2018-12-30T23:22:48.927Z,102154.61
2018-12-30T23:25:17.114Z,102160.78
2018-12-30T23:27:45.364Z,102143.71
2018-12-30T23:30:13.571Z,102136.79
2018-12-30T23:32:41.774Z,102135.54
2018-12-30T23:35:10.013Z,102128.62
2018-12-30T23:37:38.236Z,102126.38
2018-12-30T23:40:06.439Z,102134.66
2018-12-30T23:42:34.667Z,102134.18
2018-12-30T23:45:02.899Z,102140.98
2018-12-30T23:47:31.149Z,102144.44
2018-12-30T23:49:59.365Z,102145.80
2018-12-30T23:52:27.552Z,102142.34
2018-12-30T23:54:55.764Z,102143.31
2018-12-30T23:57:23.961Z,102151.87
2018-12-30T23:59:52.195Z,102158.17
